Nanyang, China
Current Conditions -  °F | °C
As of 8:00 PM on Saturday 20 Dec 2014 (Local Time) from ZHCC Reporting Station
Clear Clear  
Wind Chill: 32°   Ceiling: Unl
Heat Index: 36°   Visibility: 5mi
Dew Point:   Wind: 4mph
Humidity: 24%   Direction: 200°SSW
Pressure: 30.48"   Gusts: NA
Location:  33°N, 112.53°E
Report Text: ZHCC 201200Z 20002MPS 160V230 8000 NSC 02/M17 Q1032 NOSIG
Loading
Personal Weather Stations






























Interactive Weather Map New forecast layout! Learn more

10-Day Weather Forecast

Advertisements
Track Severe Weather on mobile